Página principal
METAR-TAF:

METAR-TAF

Aeroportos :

Valladolid, Espanha

latitude: 41-43N, longitude: 004-51W, altura: 849 m

Observação actual do tempo

O boletim foi feito há 18 minutos, às 11:00 UTC
Vento 10 kt de es-nordeste, variando entre nor-nordeste e es-sudeste
Temperatura 23°C
Humidade 41%
Pressão 1024 hPa
Visibilidade 10 km ou mais
sem nuvens abaixo de 1500 metros e sem cumulonimbus

METAR: LEVD 191100Z 06010KT 030V110 CAVOK 23/09 Q1024

Hora: 13:18 (11:18 UTC)

Previsão

O boletim foi feito há 6 horas e 18 minutos, às 05:00 UTC
Previsão válida de 19 às 06 UTC a 20 às 06 UTC
Vento 10 kt de es-nordeste
Visibilidade 10 km ou mais
sem nuvens abaixo de 1500 metros e sem cumulonimbus
Temporariamente
de 19 às 18 UTC a 20 às 02 UTC
Vento 15 kt de es-nordeste com rajadas de 25 kt

TAF: LEVD 190500Z 1906/2006 06010KT CAVOK TX28/1915Z TN09/1906Z TEMPO 1918/2002 06015G25KT

Observações e previsões do tempo de mais de 4000 aeroportos (mensagens METAR e TAF).

As estações disponíveis são os pontos amarelos e vermelhos sobre o mapa.

Mova o rato sobre o mapa para ver o nome da estação.

Depois clique no ponto para visualizar as observações e previsões meteorológicas.

Para alterar o mapa : clique nos botões verdes com uma cruz preta para aumentar o zoom; no botão verde com uma pitada de zoom; ou nas setas verdes para mapas adjacentes.


METAR-TAF: